Time;durP1;ratioP1;P1;durP2;ratioP2;P2;SDS_P1;SDS_P2;PMS_P1;PMS_P2;Temp;Humidity;BMP_temperature;BMP_pressure;BME280_temperature;BME280_humidity;BME280_pressure;Samples;Min_cycle;Max_cycle;Signal;HPM_P1;HPM_P2
2024/04/06 00:00:56;;;;;;;0.73;0.63;;;16.40;99.90;;;;;;4248014;27;20046;-58
2024/04/06 00:02:58;;;;;;;0.90;0.32;;;16.40;99.90;;;;;;4247775;27;20043;-58
2024/04/06 00:04:59;;;;;;;0.93;0.60;;;16.40;99.90;;;;;;4248439;27;20400;-58
2024/04/06 00:07:00;;;;;;;0.50;0.50;;;16.30;99.90;;;;;;4248020;27;20043;-58
2024/04/06 00:09:02;;;;;;;0.85;0.40;;;16.40;99.90;;;;;;4248094;27;20126;-57
2024/04/06 00:11:05;;;;;;;0.90;0.75;;;16.30;99.90;;;;;;4248193;27;20051;-66
2024/04/06 00:13:06;;;;;;;0.38;0.35;;;16.40;99.90;;;;;;4248106;27;20524;-58
2024/04/06 00:15:07;;;;;;;0.90;0.82;;;16.50;99.90;;;;;;4248660;27;20135;-60
2024/04/06 00:17:09;;;;;;;0.60;0.35;;;16.50;99.90;;;;;;4230633;28;20160;-57
2024/04/06 00:19:10;;;;;;;0.43;0.25;;;16.50;99.90;;;;;;4247789;27;20043;-56
2024/04/06 00:21:11;;;;;;;1.10;0.82;;;16.50;99.90;;;;;;4247818;27;20051;-59
2024/04/06 00:23:12;;;;;;;1.02;0.70;;;16.50;99.90;;;;;;4247450;27;20082;-56
2024/04/06 00:25:14;;;;;;;0.35;0.25;;;16.40;99.90;;;;;;4247538;27;20043;-55
2024/04/06 00:27:16;;;;;;;0.57;0.32;;;16.40;99.90;;;;;;4247467;27;20114;-55
2024/04/06 00:29:17;;;;;;;0.95;0.47;;;16.30;99.90;;;;;;4247550;27;20077;-56
2024/04/06 00:31:18;;;;;;;1.65;0.77;;;16.30;99.90;;;;;;4230254;28;20075;-56
2024/04/06 00:33:20;;;;;;;0.20;0.20;;;16.20;99.90;;;;;;4247682;27;20058;-56
2024/04/06 00:35:21;;;;;;;0.73;0.73;;;16.20;99.90;;;;;;4247345;27;20447;-57
2024/04/06 00:37:22;;;;;;;0.50;0.40;;;16.30;99.90;;;;;;4230456;28;20050;-57
2024/04/06 00:39:23;;;;;;;5.38;0.50;;;16.30;99.90;;;;;;4247470;27;20507;-57
2024/04/06 00:41:25;;;;;;;0.57;0.40;;;16.20;99.90;;;;;;4247432;27;20415;-56
2024/04/06 00:43:28;;;;;;;0.20;0.20;;;16.20;99.90;;;;;;4264555;27;20050;-55
2024/04/06 00:45:29;;;;;;;0.57;0.30;;;16.10;99.90;;;;;;4247674;27;20051;-63
2024/04/06 00:47:30;;;;;;;0.47;0.45;;;16.20;99.90;;;;;;4247051;27;20039;-57
2024/04/06 00:49:33;;;;;;;1.02;0.57;;;16.20;99.90;;;;;;4229859;28;20154;-58
2024/04/06 00:51:34;;;;;;;1.17;0.55;;;16.20;99.90;;;;;;4247284;27;20092;-55
2024/04/06 00:53:35;;;;;;;0.57;0.30;;;16.20;99.90;;;;;;4229910;28;20459;-56
2024/04/06 00:55:37;;;;;;;0.63;0.20;;;16.30;99.90;;;;;;4246198;27;20113;-57
2024/04/06 00:57:38;;;;;;;0.73;0.38;;;16.20;99.90;;;;;;4246852;27;20039;-57
2024/04/06 00:59:41;;;;;;;1.67;0.75;;;16.20;99.90;;;;;;4230025;28;20405;-54
2024/04/06 01:01:42;;;;;;;1.55;0.80;;;16.30;99.90;;;;;;4246801;27;20095;-54
2024/04/06 01:03:43;;;;;;;0.60;0.40;;;16.30;99.90;;;;;;4247300;27;20473;-58
2024/04/06 01:05:45;;;;;;;1.35;0.40;;;16.30;99.90;;;;;;4247027;27;20109;-58
2024/04/06 01:07:46;;;;;;;1.33;0.40;;;16.20;99.90;;;;;;4246871;27;20046;-54
2024/04/06 01:09:47;;;;;;;1.02;0.55;;;16.20;99.90;;;;;;4246685;27;20039;-57
2024/04/06 01:11:48;;;;;;;0.85;0.43;;;16.10;99.90;;;;;;4263417;27;20172;-56
2024/04/06 01:13:50;;;;;;;0.57;0.43;;;16.10;99.90;;;;;;4229860;28;20146;-61
2024/04/06 01:15:52;;;;;;;0.80;0.50;;;16.10;99.90;;;;;;4246750;27;20043;-57
2024/04/06 01:17:56;;;;;;;1.73;0.88;;;16.10;99.90;;;;;;4246878;27;20047;-58
2024/04/06 01:19:57;;;;;;;1.13;0.60;;;16.10;99.90;;;;;;4246732;27;20096;-56
2024/04/06 01:21:58;;;;;;;0.85;0.57;;;16.10;99.90;;;;;;4246198;27;20046;-57
2024/04/06 01:24:04;;;;;;;0.77;0.30;;;16.10;99.90;;;;;;4246995;27;20067;-57
2024/04/06 01:26:05;;;;;;;0.30;0.30;;;16.20;99.90;;;;;;4263393;27;20404;-56
2024/04/06 01:28:06;;;;;;;1.35;0.77;;;16.10;99.90;;;;;;4246777;27;20054;-56
2024/04/06 01:30:09;;;;;;;0.20;0.20;;;16.20;99.90;;;;;;4246613;27;20522;-57
2024/04/06 01:32:10;;;;;;;0.73;0.30;;;16.20;99.90;;;;;;4246459;27;20043;-57
2024/04/06 01:34:11;;;;;;;2.33;0.30;;;16.10;99.90;;;;;;4246773;27;20058;-63
2024/04/06 01:36:12;;;;;;;0.20;0.15;;;16.10;99.90;;;;;;4246793;28;20062;-57
2024/04/06 01:38:13;;;;;;;0.20;0.20;;;16.20;99.90;;;;;;4246539;28;20039;-56
2024/04/06 01:40:16;;;;;;;0.57;0.50;;;16.20;99.90;;;;;;4246338;28;20507;-56
2024/04/06 01:42:20;;;;;;;0.60;0.22;;;16.20;99.90;;;;;;4246525;28;20122;-60
2024/04/06 01:44:21;;;;;;;0.88;0.30;;;16.10;99.90;;;;;;4246635;28;20047;-57
2024/04/06 01:46:23;;;;;;;0.50;0.30;;;16.10;99.90;;;;;;4246563;28;20488;-57
2024/04/06 01:48:24;;;;;;;0.32;0.30;;;16.10;99.90;;;;;;4246567;28;20047;-57
2024/04/06 01:50:26;;;;;;;0.30;0.30;;;16.00;99.90;;;;;;4246450;28;20054;-54
2024/04/06 01:52:28;;;;;;;1.98;0.38;;;16.10;99.90;;;;;;4246361;28;20047;-54
2024/04/06 01:54:29;;;;;;;0.25;0.22;;;16.00;99.90;;;;;;4246194;28;20071;-57
2024/04/06 01:56:31;;;;;;;0.35;0.35;;;16.00;99.90;;;;;;4246285;28;20420;-54
2024/04/06 01:58:32;;;;;;;0.57;0.35;;;16.10;99.90;;;;;;4246507;28;20043;-54
2024/04/06 02:00:33;;;;;;;2.78;0.60;;;16.00;99.90;;;;;;4246242;28;20040;-53
2024/04/06 02:02:34;;;;;;;1.77;0.82;;;16.00;99.90;;;;;;4246398;28;20531;-54
2024/04/06 02:04:37;;;;;;;5.63;0.68;;;15.90;99.90;;;;;;4246839;28;20638;-55
2024/04/06 02:06:38;;;;;;;1.00;0.35;;;16.00;99.90;;;;;;4247073;27;20039;-55
2024/04/06 02:08:39;;;;;;;0.65;0.55;;;16.00;99.90;;;;;;4249372;27;20053;-55
2024/04/06 02:10:40;;;;;;;0.32;0.32;;;15.90;99.90;;;;;;4249760;27;20055;-55
2024/04/06 02:12:42;;;;;;;0.40;0.40;;;15.80;99.90;;;;;;4249603;27;20043;-58
2024/04/06 02:14:43;;;;;;;1.13;0.30;;;15.80;99.90;;;;;;4249722;27;20047;-55
2024/04/06 02:16:45;;;;;;;1.08;0.65;;;15.90;99.90;;;;;;4249478;27;20051;-59
2024/04/06 02:18:46;;;;;;;0.30;0.30;;;15.90;99.90;;;;;;4249459;27;20068;-55
2024/04/06 02:20:48;;;;;;;0.30;0.30;;;15.90;99.90;;;;;;4249476;27;20042;-54
2024/04/06 02:22:49;;;;;;;4.95;0.40;;;15.80;99.90;;;;;;4265841;27;20054;-54
2024/04/06 02:24:51;;;;;;;0.80;0.38;;;15.80;99.90;;;;;;4249743;27;20047;-54
2024/04/06 02:26:52;;;;;;;0.52;0.40;;;15.80;99.90;;;;;;4249380;27;20531;-54
2024/04/06 02:28:55;;;;;;;0.68;0.30;;;15.80;99.90;;;;;;4249570;27;20050;-60
2024/04/06 02:30:56;;;;;;;0.63;0.43;;;15.70;99.90;;;;;;4249496;27;20043;-57
2024/04/06 02:32:57;;;;;;;0.70;0.60;;;15.70;99.90;;;;;;4249790;27;20055;-57
2024/04/06 02:34:59;;;;;;;0.52;0.30;;;15.70;99.90;;;;;;4249209;27;20058;-61
2024/04/06 02:37:00;;;;;;;0.85;0.63;;;15.70;99.90;;;;;;4249515;27;20436;-53
2024/04/06 02:39:01;;;;;;;0.55;0.40;;;15.70;99.90;;;;;;4249003;27;20354;-55
2024/04/06 02:41:03;;;;;;;0.93;0.32;;;15.70;99.90;;;;;;4249384;27;20051;-55
2024/04/06 02:43:04;;;;;;;0.30;0.30;;;15.60;99.90;;;;;;4249839;27;20531;-60
2024/04/06 02:45:10;;;;;;;0.40;0.40;;;15.70;99.90;;;;;;4250370;27;20424;-56
2024/04/06 02:47:11;;;;;;;0.90;0.30;;;15.60;99.90;;;;;;4249814;27;20070;-57
2024/04/06 02:49:12;;;;;;;0.10;0.10;;;15.60;99.90;;;;;;4249827;27;20227;-55
2024/04/06 02:51:13;;;;;;;0.38;0.30;;;15.70;99.90;;;;;;4249313;27;20171;-55
2024/04/06 02:53:14;;;;;;;0.50;0.40;;;15.60;99.90;;;;;;4248908;27;20050;-57
2024/04/06 02:55:16;;;;;;;0.40;0.40;;;15.70;99.90;;;;;;4249234;27;20047;-59
2024/04/06 02:57:18;;;;;;;2.05;1.17;;;15.50;99.90;;;;;;4249407;27;20047;-55
2024/04/06 02:59:20;;;;;;;1.45;1.10;;;15.60;99.90;;;;;;4248967;27;20043;-57
2024/04/06 03:01:22;;;;;;;1.88;0.60;;;15.50;99.90;;;;;;4248755;27;20038;-56
2024/04/06 03:03:23;;;;;;;1.58;0.52;;;15.60;99.90;;;;;;4248951;27;20043;-54
2024/04/06 03:05:24;;;;;;;1.35;0.52;;;15.60;99.90;;;;;;4249178;27;20072;-55
2024/04/06 03:07:26;;;;;;;0.38;0.38;;;15.60;99.90;;;;;;4248488;27;20474;-57
2024/04/06 03:09:27;;;;;;;0.55;0.38;;;15.60;99.90;;;;;;4248425;27;20641;-55
2024/04/06 03:11:29;;;;;;;0.55;0.30;;;15.50;99.90;;;;;;4248650;27;20054;-61
2024/04/06 03:13:30;;;;;;;1.42;0.30;;;15.50;99.90;;;;;;4249272;27;20043;-55
2024/04/06 03:15:31;;;;;;;0.68;0.63;;;15.50;99.90;;;;;;4248904;27;20047;-56
2024/04/06 03:17:34;;;;;;;0.60;0.40;;;15.50;99.90;;;;;;4248751;27;20085;-54
2024/04/06 03:19:35;;;;;;;0.88;0.60;;;15.50;99.90;;;;;;4248251;27;20044;-57
2024/04/06 03:21:36;;;;;;;1.67;1.13;;;15.40;99.90;;;;;;4231380;28;20051;-55
2024/04/06 03:23:37;;;;;;;0.30;0.30;;;15.50;99.90;;;;;;4248651;27;20062;-55
2024/04/06 03:25:38;;;;;;;0.85;0.13;;;15.40;99.90;;;;;;4231584;28;20043;-55
2024/04/06 03:27:40;;;;;;;1.02;0.30;;;15.40;99.90;;;;;;4248399;27;20047;-54
2024/04/06 03:29:41;;;;;;;0.30;0.30;;;15.30;99.90;;;;;;4248502;27;20047;-56
2024/04/06 03:31:42;;;;;;;1.05;0.80;;;15.30;99.90;;;;;;4248746;27;20520;-54
2024/04/06 03:33:44;;;;;;;0.30;0.30;;;15.20;99.90;;;;;;4248431;27;20047;-56
2024/04/06 03:35:46;;;;;;;1.58;0.30;;;15.20;99.90;;;;;;4248012;27;20070;-54
2024/04/06 03:37:48;;;;;;;0.30;0.28;;;15.20;99.90;;;;;;4248359;27;20047;-58
2024/04/06 03:39:49;;;;;;;0.40;0.40;;;15.30;99.90;;;;;;4248424;27;20330;-58
2024/04/06 03:41:51;;;;;;;0.57;0.38;;;15.30;99.90;;;;;;4248517;27;20043;-58
2024/04/06 03:43:52;;;;;;;0.22;0.20;;;15.30;99.90;;;;;;4249398;27;20097;-60
2024/04/06 03:45:54;;;;;;;0.70;0.70;;;15.30;99.90;;;;;;4248543;27;20088;-59
2024/04/06 03:47:56;;;;;;;2.72;0.52;;;15.30;99.90;;;;;;4248460;27;20508;-59
2024/04/06 03:49:58;;;;;;;1.33;0.40;;;15.30;99.90;;;;;;4248145;27;20042;-58
2024/04/06 03:52:00;;;;;;;4.57;0.20;;;15.20;99.90;;;;;;4265469;27;20046;-55
2024/04/06 03:54:01;;;;;;;7.20;1.42;;;15.20;99.90;;;;;;4230996;28;20043;-58
2024/04/06 03:56:03;;;;;;;4.32;0.43;;;15.30;99.90;;;;;;4248100;27;20047;-56
2024/04/06 03:58:04;;;;;;;0.60;0.25;;;15.20;99.90;;;;;;4248128;27;20050;-55
2024/04/06 04:00:08;;;;;;;0.28;0.20;;;15.20;99.90;;;;;;4248015;27;20047;-56
2024/04/06 04:02:09;;;;;;;0.98;0.40;;;15.30;99.90;;;;;;4248325;27;20385;-61
2024/04/06 04:04:11;;;;;;;0.80;0.20;;;15.20;99.90;;;;;;4248065;27;20043;-55
2024/04/06 04:06:13;;;;;;;1.35;0.20;;;15.20;99.90;;;;;;4248119;27;20136;-55
2024/04/06 04:08:15;;;;;;;0.73;0.38;;;15.20;99.50;;;;;;4247623;27;20166;-55
2024/04/06 04:10:16;;;;;;;0.20;0.20;;;15.20;99.40;;;;;;4247811;27;20043;-58
2024/04/06 04:12:17;;;;;;;1.55;0.63;;;15.20;99.90;;;;;;4247462;27;20063;-57
2024/04/06 04:14:18;;;;;;;0.30;0.25;;;15.20;99.80;;;;;;4247808;27;20043;-56
2024/04/06 04:16:19;;;;;;;1.88;0.30;;;15.20;99.90;;;;;;4248030;27;20047;-57
2024/04/06 04:18:20;;;;;;;1.08;0.35;;;15.10;99.30;;;;;;4247621;27;20054;-55
2024/04/06 04:20:22;;;;;;;0.35;0.20;;;15.10;99.10;;;;;;4247321;27;20050;-57
2024/04/06 04:22:24;;;;;;;3.05;1.08;;;15.20;99.10;;;;;;4247460;27;20138;-63
2024/04/06 04:24:25;;;;;;;0.50;0.30;;;15.20;98.90;;;;;;4248427;27;20051;-57
2024/04/06 04:26:27;;;;;;;0.75;0.30;;;15.10;98.50;;;;;;4247519;27;20047;-55
2024/04/06 04:28:28;;;;;;;0.10;0.10;;;15.10;98.90;;;;;;4247407;27;20050;-56
2024/04/06 04:30:30;;;;;;;0.47;0.47;;;15.10;98.80;;;;;;4246382;27;20447;-57
2024/04/06 04:32:31;;;;;;;0.40;0.30;;;15.10;98.70;;;;;;4247333;27;20047;-54
2024/04/06 04:34:32;;;;;;;0.10;0.10;;;15.10;99.30;;;;;;4247237;27;20047;-55
2024/04/06 04:36:35;;;;;;;0.35;0.28;;;15.20;98.20;;;;;;4247656;27;20047;-57
2024/04/06 04:38:37;;;;;;;0.30;0.28;;;15.10;98.30;;;;;;4247438;27;20047;-57
2024/04/06 04:40:39;;;;;;;0.20;0.20;;;15.20;98.20;;;;;;4247381;27;20050;-55
2024/04/06 04:42:40;;;;;;;0.30;0.30;;;15.20;98.30;;;;;;4230789;28;20052;-55
2024/04/06 04:44:41;;;;;;;1.55;0.75;;;15.20;98.00;;;;;;4247795;27;20111;-56
2024/04/06 04:46:42;;;;;;;0.30;0.20;;;15.20;98.10;;;;;;4247557;27;20121;-55
2024/04/06 04:48:53;;;;;;;0.75;0.20;;;15.20;97.80;;;;;;4246890;27;20051;-55
2024/04/06 04:50:54;;;;;;;0.20;0.20;;;15.20;97.40;;;;;;4247387;27;20480;-56
2024/04/06 04:52:55;;;;;;;0.50;0.30;;;15.20;97.80;;;;;;4247266;27;20043;-55
2024/04/06 04:54:58;;;;;;;0.30;0.20;;;15.20;97.50;;;;;;4247308;27;20127;-56
2024/04/06 04:56:59;;;;;;;0.47;0.43;;;15.30;97.80;;;;;;4247249;27;20042;-60
2024/04/06 04:59:00;;;;;;;0.10;0.10;;;15.20;97.30;;;;;;4247033;27;20385;-58
2024/04/06 05:01:01;;;;;;;2.95;0.10;;;15.10;97.70;;;;;;4247287;27;20047;-57
2024/04/06 05:03:04;;;;;;;0.82;0.25;;;15.20;97.60;;;;;;4246989;27;20401;-59
2024/04/06 05:05:05;;;;;;;0.47;0.47;;;15.10;97.30;;;;;;4248042;27;20069;-57
2024/04/06 05:07:07;;;;;;;0.90;0.45;;;15.10;97.40;;;;;;4247191;27;20043;-57
2024/04/06 05:09:10;;;;;;;0.20;0.20;;;15.10;97.50;;;;;;4230077;28;20059;-56
2024/04/06 05:11:12;;;;;;;1.65;0.25;;;15.10;97.60;;;;;;4229947;28;20043;-56
2024/04/06 05:13:14;;;;;;;0.35;0.17;;;15.20;97.30;;;;;;4246889;27;20080;-57
2024/04/06 05:15:16;;;;;;;1.10;0.20;;;15.20;97.50;;;;;;4247608;27;20474;-58
2024/04/06 05:17:18;;;;;;;0.75;0.47;;;15.20;96.90;;;;;;4246632;27;20092;-55
2024/04/06 05:19:20;;;;;;;1.42;0.73;;;15.20;97.30;;;;;;4247063;27;20054;-56
2024/04/06 05:21:21;;;;;;;0.47;0.17;;;15.10;96.50;;;;;;4247121;27;20432;-55
2024/04/06 05:23:23;;;;;;;0.57;0.25;;;15.20;97.00;;;;;;4246657;27;20597;-55
2024/04/06 05:25:24;;;;;;;0.43;0.10;;;15.20;96.80;;;;;;4264294;27;20039;-56
2024/04/06 05:27:28;;;;;;;0.20;0.10;;;15.10;96.70;;;;;;4229946;28;20118;-58
2024/04/06 05:29:29;;;;;;;0.45;0.30;;;15.20;96.60;;;;;;4247066;27;20047;-56
2024/04/06 05:31:30;;;;;;;0.75;0.30;;;15.20;96.80;;;;;;4246749;27;20412;-57
2024/04/06 05:33:31;;;;;;;0.20;0.10;;;15.20;97.10;;;;;;4247190;27;20594;-57
2024/04/06 05:35:32;;;;;;;1.02;0.20;;;15.20;96.40;;;;;;4246761;27;20492;-57
2024/04/06 05:37:34;;;;;;;0.25;0.25;;;15.10;96.70;;;;;;4246997;27;20047;-57
2024/04/06 05:39:35;;;;;;;1.10;0.32;;;15.20;96.90;;;;;;4247318;28;20096;-58
2024/04/06 05:41:36;;;;;;;3.00;0.63;;;15.30;96.50;;;;;;4246572;27;20047;-57
2024/04/06 05:43:38;;;;;;;0.80;0.20;;;15.20;96.60;;;;;;4247079;28;20043;-60
2024/04/06 05:45:40;;;;;;;0.30;0.30;;;15.20;96.30;;;;;;4247504;28;20072;-58
2024/04/06 05:47:41;;;;;;;0.17;0.10;;;15.20;96.60;;;;;;4230426;28;20047;-57
2024/04/06 05:49:43;;;;;;;1.02;0.25;;;15.30;96.10;;;;;;4247049;28;20043;-63
2024/04/06 05:51:44;;;;;;;2.08;0.65;;;15.30;96.90;;;;;;4246715;28;20066;-57
2024/04/06 05:53:46;;;;;;;1.10;0.22;;;15.30;96.00;;;;;;4246566;28;20046;-57
2024/04/06 05:55:47;;;;;;;0.25;0.25;;;15.20;95.90;;;;;;4229972;28;20063;-56
2024/04/06 05:57:49;;;;;;;0.35;0.20;;;15.30;96.00;;;;;;4247148;28;20051;-57
2024/04/06 05:59:51;;;;;;;1.02;0.35;;;15.30;95.70;;;;;;4246933;28;20519;-58
2024/04/06 06:01:52;;;;;;;1.00;0.63;;;15.30;95.60;;;;;;4246636;28;20054;-57
2024/04/06 06:03:53;;;;;;;2.53;0.30;;;15.30;95.50;;;;;;4246700;28;20119;-56
2024/04/06 06:05:55;;;;;;;0.30;0.13;;;15.30;95.60;;;;;;4246249;28;20066;-55
2024/04/06 06:07:56;;;;;;;0.55;0.40;;;15.40;95.50;;;;;;4247033;28;20055;-55
2024/04/06 06:09:57;;;;;;;0.32;0.22;;;15.30;94.80;;;;;;4229603;28;20048;-57
2024/04/06 06:11:58;;;;;;;0.45;0.43;;;15.40;94.50;;;;;;4246860;28;20058;-60
2024/04/06 06:13:59;;;;;;;0.35;0.35;;;15.40;94.50;;;;;;4246660;28;20039;-57
2024/04/06 06:16:02;;;;;;;0.43;0.28;;;15.40;94.60;;;;;;4246166;28;20425;-57
2024/04/06 06:18:04;;;;;;;0.47;0.43;;;15.50;94.40;;;;;;4246631;28;20072;-57
2024/04/06 06:20:07;;;;;;;0.13;0.13;;;15.50;94.30;;;;;;4229339;28;20048;-57
2024/04/06 06:22:09;;;;;;;0.85;0.30;;;15.60;94.00;;;;;;4229315;28;20489;-57
2024/04/06 06:24:10;;;;;;;0.10;0.10;;;15.60;93.50;;;;;;4246583;28;20050;-56
2024/04/06 06:26:11;;;;;;;0.00;0.00;;;15.70;93.90;;;;;;4246305;28;20502;-55
2024/04/06 06:28:13;;;;;;;0.10;0.10;;;15.70;93.80;;;;;;4246540;28;20051;-56
2024/04/06 06:30:14;;;;;;;0.10;0.10;;;15.80;93.60;;;;;;4229114;28;20131;-55
2024/04/06 06:32:17;;;;;;;0.45;0.10;;;15.80;92.70;;;;;;4246090;28;20047;-55
2024/04/06 06:34:20;;;;;;;0.30;0.05;;;15.80;92.90;;;;;;4246400;28;20071;-55
2024/04/06 06:36:22;;;;;;;0.10;0.10;;;15.80;92.70;;;;;;4246404;28;20043;-58
2024/04/06 06:38:23;;;;;;;1.60;0.40;;;15.90;92.70;;;;;;4246219;28;20092;-56
2024/04/06 06:40:24;;;;;;;0.17;0.17;;;15.90;92.10;;;;;;4246323;28;20047;-57
2024/04/06 06:42:25;;;;;;;0.08;0.08;;;16.00;93.10;;;;;;4246367;28;20069;-55
2024/04/06 06:44:26;;;;;;;0.40;0.17;;;16.00;92.30;;;;;;4246041;28;20039;-56
2024/04/06 06:46:27;;;;;;;0.40;0.25;;;16.00;92.10;;;;;;4246525;28;20039;-59
2024/04/06 06:48:30;;;;;;;0.40;0.20;;;16.10;92.00;;;;;;4246599;28;20461;-58
2024/04/06 06:50:31;;;;;;;0.10;0.10;;;16.10;91.60;;;;;;4246500;28;20039;-57
2024/04/06 06:52:32;;;;;;;0.63;0.22;;;16.20;91.30;;;;;;4246190;27;20047;-58
2024/04/06 06:54:33;;;;;;;0.20;0.10;;;16.10;91.50;;;;;;4248434;27;20419;-64
2024/04/06 06:56:34;;;;;;;0.40;0.13;;;16.20;91.80;;;;;;4249283;27;20051;-55
2024/04/06 06:58:36;;;;;;;0.30;0.25;;;16.30;91.80;;;;;;4248906;27;20047;-55
2024/04/06 07:00:38;;;;;;;0.20;0.20;;;16.30;90.80;;;;;;4248967;27;20538;-55
2024/04/06 07:02:39;;;;;;;0.70;0.20;;;16.40;91.10;;;;;;4249222;27;20076;-54
2024/04/06 07:04:42;;;;;;;0.30;0.30;;;16.40;90.80;;;;;;4248804;27;20039;-54
2024/04/06 07:06:43;;;;;;;0.95;0.75;;;16.50;90.70;;;;;;4248745;27;20092;-54
2024/04/06 07:08:45;;;;;;;0.40;0.40;;;16.50;91.10;;;;;;4249018;27;20043;-56
2024/04/06 07:10:46;;;;;;;0.82;0.10;;;16.60;91.10;;;;;;4249238;27;20499;-56
2024/04/06 07:12:48;;;;;;;0.82;0.52;;;16.70;90.40;;;;;;4248424;27;20047;-60
2024/04/06 07:14:49;;;;;;;0.63;0.10;;;16.70;89.70;;;;;;4248558;27;20054;-56
2024/04/06 07:16:50;;;;;;;0.52;0.50;;;16.70;90.70;;;;;;4248557;27;20043;-55
2024/04/06 07:18:51;;;;;;;0.10;0.10;;;16.80;88.70;;;;;;4248799;27;20089;-54
2024/04/06 07:20:54;;;;;;;0.20;0.20;;;16.90;90.80;;;;;;4248703;27;20047;-56
2024/04/06 07:22:55;;;;;;;0.03;0.03;;;16.90;89.90;;;;;;4248181;27;20169;-56
2024/04/06 07:24:56;;;;;;;0.10;0.10;;;17.00;90.20;;;;;;4248486;27;20047;-55
2024/04/06 07:26:58;;;;;;;0.10;0.10;;;17.10;89.80;;;;;;4248480;27;20096;-56
2024/04/06 07:28:59;;;;;;;0.47;0.10;;;17.10;90.10;;;;;;4248315;27;20051;-55
2024/04/06 07:31:00;;;;;;;0.40;0.20;;;17.20;88.60;;;;;;4248323;27;20059;-60
2024/04/06 07:33:01;;;;;;;0.10;0.10;;;17.20;87.60;;;;;;4248371;27;20047;-56
2024/04/06 07:35:04;;;;;;;0.47;0.38;;;17.30;89.60;;;;;;4231525;28;20047;-58
2024/04/06 07:37:07;;;;;;;0.13;0.13;;;17.40;88.70;;;;;;4231517;28;20055;-64
2024/04/06 07:39:08;;;;;;;1.10;0.25;;;17.50;89.70;;;;;;4248461;27;20043;-57
2024/04/06 07:41:09;;;;;;;0.38;0.20;;;17.60;89.10;;;;;;4231411;28;20047;-57
2024/04/06 07:43:11;;;;;;;0.25;0.17;;;17.70;90.00;;;;;;4247985;27;20050;-57
2024/04/06 07:45:12;;;;;;;0.40;0.20;;;17.70;85.80;;;;;;4248204;27;20076;-56
2024/04/06 07:47:13;;;;;;;0.30;0.17;;;17.80;86.60;;;;;;4248202;27;20245;-58
2024/04/06 07:49:14;;;;;;;0.45;0.30;;;17.80;88.40;;;;;;4248095;27;20051;-54
2024/04/06 07:51:15;;;;;;;0.47;0.45;;;18.00;91.70;;;;;;4248022;27;20051;-55
2024/04/06 07:53:18;;;;;;;0.45;0.20;;;18.00;86.40;;;;;;4248023;27;20051;-60
2024/04/06 07:55:21;;;;;;;0.98;0.20;;;18.00;87.10;;;;;;4247954;27;20039;-58
2024/04/06 07:57:22;;;;;;;0.90;0.17;;;18.00;84.50;;;;;;4247890;27;20039;-55
2024/04/06 07:59:23;;;;;;;0.17;0.10;;;18.10;87.20;;;;;;4231060;28;20082;-57
2024/04/06 08:01:26;;;;;;;0.88;0.70;;;18.20;84.90;;;;;;4248019;27;20047;-54
2024/04/06 08:03:27;;;;;;;1.20;0.30;;;18.40;86.20;;;;;;4248013;27;20043;-55
2024/04/06 08:05:28;;;;;;;1.65;0.38;;;18.40;85.70;;;;;;4247610;27;20039;-55
2024/04/06 08:07:31;;;;;;;0.20;0.20;;;18.50;84.30;;;;;;4248084;27;20471;-55
2024/04/06 08:09:36;;;;;;;1.13;0.40;;;18.50;84.40;;;;;;4247753;27;20529;-56
2024/04/06 08:11:37;;;;;;;0.30;0.30;;;18.50;82.00;;;;;;4247511;27;20066;-56
2024/04/06 08:13:38;;;;;;;0.25;0.20;;;18.50;82.40;;;;;;4247501;27;20042;-58
2024/04/06 08:15:39;;;;;;;0.57;0.38;;;18.50;83.00;;;;;;4247569;27;20111;-58
2024/04/06 08:17:42;;;;;;;0.15;0.15;;;18.60;82.90;;;;;;4247617;27;20039;-54
2024/04/06 08:19:43;;;;;;;0.20;0.10;;;18.70;84.90;;;;;;4264547;27;20047;-55
2024/04/06 08:21:45;;;;;;;0.20;0.10;;;18.80;81.90;;;;;;4247149;27;20443;-61
2024/04/06 08:23:46;;;;;;;0.10;0.10;;;18.80;82.60;;;;;;4247557;27;20370;-56
2024/04/06 08:25:52;;;;;;;0.20;0.10;;;18.90;81.20;;;;;;4247244;27;20084;-55
2024/04/06 08:27:54;;;;;;;0.25;0.20;;;18.80;80.60;;;;;;4247575;27;20444;-55
2024/04/06 08:29:55;;;;;;;0.10;0.10;;;18.90;81.90;;;;;;4247523;27;20050;-61
2024/04/06 08:31:56;;;;;;;0.57;0.57;;;19.10;82.70;;;;;;4247384;27;20047;-55
2024/04/06 08:33:57;;;;;;;0.40;0.40;;;19.30;81.60;;;;;;4247498;27;20051;-56
2024/04/06 08:35:58;;;;;;;0.40;0.10;;;19.50;83.10;;;;;;4247492;27;20077;-57
2024/04/06 08:38:00;;;;;;;0.20;0.20;;;19.80;83.10;;;;;;4247309;27;20142;-55
2024/04/06 08:40:01;;;;;;;0.70;0.30;;;20.00;81.70;;;;;;4246907;27;20035;-56
2024/04/06 08:42:04;;;;;;;0.43;0.20;;;20.20;81.10;;;;;;4247488;27;20060;-55
2024/04/06 08:44:09;;;;;;;0.35;0.20;;;20.10;79.30;;;;;;4247403;27;20047;-57
2024/04/06 08:46:10;;;;;;;0.30;0.30;;;20.20;78.50;;;;;;4247259;27;20126;-59
2024/04/06 08:48:12;;;;;;;0.32;0.20;;;20.20;79.70;;;;;;4247363;27;20043;-62
2024/04/06 08:50:14;;;;;;;0.30;0.30;;;20.10;78.80;;;;;;4247155;27;20070;-56
2024/04/06 08:52:15;;;;;;;0.50;0.20;;;20.00;78.30;;;;;;4246979;27;20047;-58
2024/04/06 08:54:17;;;;;;;0.60;0.38;;;20.00;80.00;;;;;;4246915;27;20499;-57
2024/04/06 08:56:18;;;;;;;0.82;0.25;;;20.10;79.50;;;;;;4230118;28;20055;-58
2024/04/06 08:58:20;;;;;;;1.38;0.57;;;20.20;80.50;;;;;;4229960;28;20058;-59
2024/04/06 09:00:26;;;;;;;0.30;0.20;;;20.20;78.30;;;;;;4229758;28;20120;-57
2024/04/06 09:02:30;;;;;;;0.10;0.10;;;20.20;79.10;;;;;;4247008;27;20051;-59
2024/04/06 09:04:31;;;;;;;0.10;0.10;;;20.30;77.90;;;;;;4237910;27;20043;-55
2024/04/06 09:06:32;;;;;;;0.30;0.30;;;20.30;78.00;;;;;;4230043;28;20358;-55
2024/04/06 09:08:37;;;;;;;0.63;0.10;;;20.40;78.80;;;;;;4229851;28;20048;-60
2024/04/06 09:10:38;;;;;;;0.10;0.10;;;20.60;82.30;;;;;;4229916;28;20044;-55
2024/04/06 09:12:40;;;;;;;0.22;0.17;;;20.70;79.80;;;;;;4229946;28;20044;-55
2024/04/06 09:14:47;;;;;;;0.40;0.15;;;20.80;80.40;;;;;;4229732;28;20056;-58
2024/04/06 09:16:48;;;;;;;1.30;0.30;;;20.80;76.70;;;;;;4229145;28;20043;-58
2024/04/06 09:18:51;;;;;;;1.52;0.10;;;20.90;79.90;;;;;;4213168;28;20101;-61
2024/04/06 09:20:52;;;;;;;0.40;0.40;;;21.00;79.10;;;;;;4229861;28;20052;-55
2024/04/06 09:22:56;;;;;;;0.40;0.20;;;21.00;78.50;;;;;;4239458;27;20086;-56
2024/04/06 09:24:57;;;;;;;1.38;0.10;;;21.10;80.00;;;;;;4260260;27;20042;-56
2024/04/06 09:27:09;;;;;;;0.00;0.00;;;21.20;84.70;;;;;;4237514;27;20035;-55
2024/04/06 09:29:10;;;;;;;2.00;0.32;;;21.10;87.20;;;;;;4240794;27;20464;-55
2024/04/06 09:31:18;;;;;;;2.75;1.02;;;21.10;79.70;;;;;;4230746;28;20044;-55
2024/04/06 09:33:21;;;;;;;0.52;0.43;;;21.10;78.70;;;;;;4242675;28;20051;-55
2024/04/06 09:35:24;;;;;;;0.03;0.03;;;21.00;80.20;;;;;;4231109;27;20096;-56
2024/04/06 09:37:35;;;;;;;0.50;0.43;;;21.00;81.10;;;;;;4246506;27;20051;-59
2024/04/06 09:39:38;;;;;;;0.13;0.13;;;21.10;81.30;;;;;;4246425;27;20050;-56
2024/04/06 09:41:41;;;;;;;0.30;0.15;;;21.20;80.60;;;;;;4243105;28;20047;-56
2024/04/06 09:43:43;;;;;;;0.73;0.28;;;21.20;80.30;;;;;;4229900;28;20043;-56
2024/04/06 09:45:46;;;;;;;0.20;0.10;;;21.20;79.50;;;;;;4243192;27;20050;-56
2024/04/06 09:47:49;;;;;;;0.20;0.15;;;21.20;79.80;;;;;;4246337;28;20051;-63
2024/04/06 09:49:51;;;;;;;0.38;0.22;;;21.30;80.40;;;;;;4246331;28;20059;-61
2024/04/06 09:51:53;;;;;;;0.30;0.20;;;21.30;79.50;;;;;;4246148;28;20100;-56
2024/04/06 09:53:54;;;;;;;0.20;0.20;;;21.40;80.70;;;;;;4246114;28;20120;-63
2024/04/06 09:55:55;;;;;;;0.10;0.10;;;21.50;79.80;;;;;;4246155;28;20050;-59
2024/04/06 09:57:57;;;;;;;0.10;0.10;;;21.60;81.00;;;;;;4246363;28;20051;-56
2024/04/06 10:00:01;;;;;;;0.40;0.20;;;21.70;79.40;;;;;;4229187;28;20054;-56
2024/04/06 10:02:03;;;;;;;0.10;0.10;;;21.70;78.10;;;;;;4246432;28;20059;-56
2024/04/06 10:04:22;;;;;;;0.05;0.00;;;21.70;77.00;;;;;;4246476;28;20058;-58
2024/04/06 10:06:28;;;;;;;0.28;0.20;;;21.80;78.40;;;;;;4229060;28;20088;-57
2024/04/06 10:08:30;;;;;;;0.38;0.20;;;21.80;79.60;;;;;;4246018;28;20548;-60
2024/04/06 10:10:31;;;;;;;0.10;0.10;;;21.90;77.90;;;;;;4245912;28;20420;-57
2024/04/06 10:12:37;;;;;;;0.60;0.60;;;21.90;79.60;;;;;;4228999;28;20075;-56
2024/04/06 10:14:44;;;;;;;0.30;0.20;;;21.90;77.30;;;;;;4246200;28;20408;-55
2024/04/06 10:16:45;;;;;;;0.75;0.10;;;21.90;77.90;;;;;;4246186;28;20039;-59
2024/04/06 10:18:47;;;;;;;0.00;0.00;;;22.00;78.10;;;;;;4246400;28;20044;-64
2024/04/06 10:20:50;;;;;;;1.20;0.47;;;22.00;80.20;;;;;;4246148;28;20047;-56
2024/04/06 10:22:53;;;;;;;0.30;0.10;;;22.00;77.00;;;;;;4245159;28;20054;-55
2024/04/06 10:25:00;;;;;;;1.10;0.20;;;22.00;77.20;;;;;;4246158;28;20046;-57
2024/04/06 10:27:02;;;;;;;0.63;0.30;;;21.90;77.20;;;;;;4246089;28;20043;-56
2024/04/06 10:29:03;;;;;;;1.20;0.30;;;22.10;77.40;;;;;;4249207;27;20047;-58
2024/04/06 10:31:06;;;;;;;1.40;0.30;;;22.10;78.40;;;;;;4249326;27;20476;-56
2024/04/06 10:33:08;;;;;;;1.10;0.50;;;22.10;77.50;;;;;;4266232;27;20088;-57
2024/04/06 10:35:09;;;;;;;0.43;0.28;;;22.10;77.70;;;;;;4249276;27;20047;-56